Time;durP1;ratioP1;P1;durP2;ratioP2;P2;SDS_P1;SDS_P2;PMS_P1;PMS_P2;Temp;Humidity;BMP_temperature;BMP_pressure;BME280_temperature;BME280_humidity;BME280_pressure;Samples;Min_cycle;Max_cycle;Signal;HPM_P1;HPM_P2
2023/05/30 00:01:46;;;;;;;14.98;4.70;;;11.10;99.90;;;;;;5092476;28;20408;-61
2023/05/30 00:04:11;;;;;;;11.13;4.05;;;11.00;99.90;;;;;;5090375;28;20389;-61
2023/05/30 00:06:37;;;;;;;8.73;3.25;;;11.10;99.90;;;;;;5091910;28;20028;-61
2023/05/30 00:09:03;;;;;;;12.95;4.32;;;11.10;99.90;;;;;;5092189;28;20072;-61
2023/05/30 00:11:29;;;;;;;9.40;3.60;;;11.00;99.90;;;;;;5090785;28;20040;-61
2023/05/30 00:13:56;;;;;;;13.40;4.10;;;11.00;99.90;;;;;;5107881;28;20050;-61
2023/05/30 00:16:29;;;;;;;16.60;4.53;;;11.00;99.90;;;;;;5107590;28;20046;-61
2023/05/30 00:18:56;;;;;;;10.48;3.40;;;11.00;99.90;;;;;;5107064;28;20044;-61
2023/05/30 00:21:22;;;;;;;8.65;3.28;;;11.00;99.90;;;;;;5091389;28;20040;-60
2023/05/30 00:23:49;;;;;;;9.88;3.60;;;11.00;99.90;;;;;;5092004;28;20079;-61
2023/05/30 00:26:15;;;;;;;8.52;3.55;;;11.00;99.90;;;;;;5091006;28;20036;-61
2023/05/30 00:28:41;;;;;;;14.10;3.80;;;11.00;99.90;;;;;;5091630;28;20040;-61
2023/05/30 00:31:07;;;;;;;11.43;4.03;;;11.00;99.90;;;;;;5092175;28;20040;-60
2023/05/30 00:33:33;;;;;;;8.85;4.15;;;11.00;99.90;;;;;;5090854;28;20044;-61
2023/05/30 00:35:59;;;;;;;12.60;3.70;;;11.00;99.90;;;;;;5091819;28;20035;-61
2023/05/30 00:38:24;;;;;;;8.85;3.35;;;11.00;99.90;;;;;;5106569;28;20047;-61
2023/05/30 00:40:50;;;;;;;12.05;3.85;;;11.00;99.90;;;;;;5073024;28;20039;-60
2023/05/30 00:43:18;;;;;;;10.40;3.70;;;11.00;99.90;;;;;;5091583;28;20044;-61
2023/05/30 00:45:44;;;;;;;12.10;3.67;;;11.00;99.90;;;;;;5089401;28;20051;-60
2023/05/30 00:48:10;;;;;;;10.88;3.38;;;11.00;99.90;;;;;;5090508;28;20050;-61
2023/05/30 00:50:36;;;;;;;9.20;3.30;;;11.00;99.90;;;;;;5091632;28;20036;-61
2023/05/30 00:53:04;;;;;;;13.18;4.38;;;11.00;99.90;;;;;;5090137;28;20051;-61
2023/05/30 00:55:30;;;;;;;12.68;3.63;;;11.00;99.90;;;;;;5090590;28;20051;-60
2023/05/30 00:57:56;;;;;;;13.52;3.90;;;11.00;99.90;;;;;;5095487;28;20047;-61
2023/05/30 01:00:24;;;;;;;9.25;3.38;;;11.00;99.90;;;;;;5094356;28;20036;-61
2023/05/30 01:02:51;;;;;;;10.27;3.63;;;11.00;99.90;;;;;;5094216;28;20051;-61
2023/05/30 01:05:17;;;;;;;9.77;3.00;;;11.00;99.90;;;;;;5093872;28;20040;-61
2023/05/30 01:07:48;;;;;;;8.38;3.42;;;11.00;99.90;;;;;;5094280;28;20085;-61
2023/05/30 01:10:15;;;;;;;12.15;4.00;;;11.00;99.90;;;;;;5076885;28;20115;-61
2023/05/30 01:13:09;;;;;;;8.38;3.78;;;11.00;99.90;;;;;;5095011;28;20048;-61
2023/05/30 01:15:48;;;;;;;12.82;3.45;;;11.00;99.90;;;;;;5094400;28;20043;-61
2023/05/30 01:18:21;;;;;;;11.65;4.07;;;11.00;99.90;;;;;;5095738;28;20397;-61
2023/05/30 01:20:56;;;;;;;13.80;4.28;;;11.00;99.90;;;;;;5094287;28;20044;-61
2023/05/30 01:23:34;;;;;;;;;;;11.00;99.90;;;;;;5095086;28;20370;-61
2023/05/30 01:26:18;;;;;;;13.93;4.32;;;11.10;99.90;;;;;;5095240;28;19962;-61
2023/05/30 01:28:46;;;;;;;10.57;3.78;;;11.10;99.90;;;;;;5092682;28;20079;-60
2023/05/30 01:31:13;;;;;;;8.60;4.25;;;11.10;99.90;;;;;;5094559;28;20168;-61
2023/05/30 01:33:39;;;;;;;12.30;3.88;;;11.10;99.90;;;;;;5093071;28;20052;-60
2023/05/30 01:36:06;;;;;;;11.98;3.95;;;11.00;99.90;;;;;;5094099;28;20128;-61
2023/05/30 01:38:34;;;;;;;10.52;3.72;;;11.00;99.90;;;;;;5092956;28;20115;-61
2023/05/30 01:41:01;;;;;;;11.85;3.90;;;11.10;99.90;;;;;;5093442;28;20040;-60
2023/05/30 01:43:53;;;;;;;9.07;4.25;;;11.10;99.90;;;;;;5091821;28;20505;-60
2023/05/30 01:46:32;;;;;;;13.73;5.05;;;11.10;99.90;;;;;;5094303;28;20123;-61
2023/05/30 01:49:25;;;;;;;16.50;3.95;;;11.10;99.90;;;;;;5075771;28;20074;-60
2023/05/30 01:52:07;;;;;;;12.88;4.47;;;11.10;99.90;;;;;;5094513;28;20389;-60
2023/05/30 01:54:35;;;;;;;10.32;3.78;;;11.10;99.90;;;;;;5075809;28;20052;-61
2023/05/30 01:57:08;;;;;;;16.45;3.95;;;11.10;99.90;;;;;;5075534;28;20043;-61
2023/05/30 01:59:35;;;;;;;12.75;4.40;;;11.10;99.90;;;;;;5092786;28;20036;-61
2023/05/30 02:02:02;;;;;;;12.13;3.88;;;11.10;99.90;;;;;;5092890;28;20040;-60
2023/05/30 02:04:28;;;;;;;13.02;4.32;;;11.10;99.90;;;;;;5092910;28;20086;-60
2023/05/30 02:06:53;;;;;;;12.57;4.68;;;11.10;99.90;;;;;;5093729;28;20064;-60
2023/05/30 02:09:19;;;;;;;13.20;4.15;;;11.10;99.90;;;;;;5092953;28;20093;-61
2023/05/30 02:11:45;;;;;;;13.05;3.90;;;11.10;99.90;;;;;;5093323;28;20032;-61
2023/05/30 02:14:10;;;;;;;16.20;4.93;;;11.20;99.90;;;;;;5092817;28;20131;-61
2023/05/30 02:16:36;;;;;;;12.35;4.05;;;11.20;99.90;;;;;;5093521;28;20075;-61
2023/05/30 02:19:02;;;;;;;21.02;4.75;;;11.20;99.90;;;;;;5093097;28;20090;-61
2023/05/30 02:21:28;;;;;;;11.75;4.20;;;11.20;99.90;;;;;;5093575;28;20071;-61
2023/05/30 02:23:54;;;;;;;15.05;4.50;;;11.20;99.90;;;;;;5094119;28;20042;-61
2023/05/30 02:26:20;;;;;;;12.30;3.95;;;11.20;99.90;;;;;;5092632;28;20421;-61
2023/05/30 02:28:46;;;;;;;13.43;4.00;;;11.20;99.90;;;;;;5093726;28;20081;-61
2023/05/30 02:31:12;;;;;;;12.82;5.15;;;11.20;99.90;;;;;;5074945;28;20403;-61
2023/05/30 02:33:37;;;;;;;16.08;4.93;;;11.20;99.90;;;;;;5092083;28;20496;-60
2023/05/30 02:36:03;;;;;;;13.38;4.80;;;11.20;99.90;;;;;;5092439;28;20048;-61
2023/05/30 02:38:29;;;;;;;11.52;4.18;;;11.20;99.90;;;;;;5074006;28;20406;-60
2023/05/30 02:40:54;;;;;;;11.68;4.43;;;11.20;99.90;;;;;;5092613;28;20039;-60
2023/05/30 02:43:20;;;;;;;15.80;4.47;;;11.20;99.90;;;;;;5093124;28;20469;-61
2023/05/30 02:45:46;;;;;;;11.02;4.40;;;11.20;99.90;;;;;;5092488;28;20044;-61
2023/05/30 02:48:11;;;;;;;15.10;4.05;;;11.20;99.90;;;;;;5093115;28;20050;-61
2023/05/30 02:50:37;;;;;;;13.00;5.47;;;11.20;99.90;;;;;;5102754;28;20439;-60
2023/05/30 02:53:03;;;;;;;18.00;4.70;;;11.20;99.90;;;;;;5095572;28;20036;-60
2023/05/30 02:55:29;;;;;;;13.00;4.30;;;11.20;99.90;;;;;;5096549;28;20120;-61
2023/05/30 02:57:54;;;;;;;9.38;3.30;;;11.20;99.90;;;;;;5113669;28;20028;-61
2023/05/30 03:00:20;;;;;;;12.13;4.25;;;11.20;99.90;;;;;;5112179;28;20039;-61
2023/05/30 03:02:46;;;;;;;14.43;5.00;;;11.20;99.90;;;;;;5113497;28;20035;-60
2023/05/30 03:05:12;;;;;;;12.27;4.13;;;11.20;99.90;;;;;;5095109;28;20050;-61
2023/05/30 03:07:38;;;;;;;9.02;3.60;;;11.20;99.90;;;;;;5108848;28;20036;-61
2023/05/30 03:10:04;;;;;;;12.00;4.30;;;11.20;99.90;;;;;;5093148;28;20043;-61
2023/05/30 03:12:30;;;;;;;11.32;3.83;;;11.20;99.90;;;;;;5092543;28;20066;-60
2023/05/30 03:14:55;;;;;;;16.08;5.00;;;11.20;99.90;;;;;;5100341;28;20031;-61
2023/05/30 03:17:22;;;;;;;15.15;5.47;;;11.20;99.90;;;;;;5112670;28;20045;-61
2023/05/30 03:19:48;;;;;;;13.90;5.32;;;11.20;99.90;;;;;;5111299;28;20545;-60
2023/05/30 03:22:13;;;;;;;15.05;4.40;;;11.20;99.90;;;;;;5110965;28;20043;-61
2023/05/30 03:24:39;;;;;;;10.85;4.68;;;11.20;99.90;;;;;;5111453;28;20043;-60
2023/05/30 03:27:07;;;;;;;13.27;4.18;;;11.20;99.90;;;;;;5111955;28;20035;-61
2023/05/30 03:29:33;;;;;;;14.93;5.05;;;11.20;99.90;;;;;;5111663;28;20050;-60
2023/05/30 03:31:59;;;;;;;16.65;4.18;;;11.20;99.90;;;;;;5112287;28;20043;-60
2023/05/30 03:34:25;;;;;;;14.48;4.90;;;11.20;99.90;;;;;;5111744;28;20043;-61
2023/05/30 03:36:52;;;;;;;13.70;4.82;;;11.20;99.90;;;;;;5111693;28;20480;-60
2023/05/30 03:39:21;;;;;;;14.52;4.53;;;11.20;99.90;;;;;;5111836;28;20050;-60
2023/05/30 03:41:47;;;;;;;11.77;3.45;;;11.20;99.90;;;;;;5111178;28;20028;-60
2023/05/30 03:44:13;;;;;;;15.73;4.78;;;11.20;99.90;;;;;;5111072;28;20053;-60
2023/05/30 03:46:39;;;;;;;12.40;4.45;;;11.20;99.90;;;;;;5109139;28;20043;-60
2023/05/30 03:49:05;;;;;;;9.95;3.67;;;11.30;99.90;;;;;;5090555;28;20123;-60
2023/05/30 03:51:33;;;;;;;10.75;3.70;;;11.30;99.90;;;;;;5091929;28;20161;-61
2023/05/30 03:53:58;;;;;;;13.60;3.78;;;11.30;99.90;;;;;;5092383;28;20050;-60
2023/05/30 03:56:25;;;;;;;13.25;4.10;;;11.30;99.90;;;;;;5091431;28;20111;-61
2023/05/30 03:58:52;;;;;;;14.95;5.10;;;11.30;99.90;;;;;;5092226;28;20040;-60
2023/05/30 04:01:18;;;;;;;11.38;4.63;;;11.30;99.90;;;;;;5092279;28;20050;-60
2023/05/30 04:03:45;;;;;;;13.27;4.20;;;11.30;99.90;;;;;;5089866;28;20508;-60
2023/05/30 04:06:11;;;;;;;10.57;3.60;;;11.30;99.90;;;;;;5091972;28;20036;-60
2023/05/30 04:08:37;;;;;;;11.02;4.30;;;11.40;99.90;;;;;;5092022;28;20048;-60
2023/05/30 04:11:04;;;;;;;13.10;4.35;;;11.40;99.90;;;;;;5090164;28;20115;-60
2023/05/30 04:13:29;;;;;;;13.98;4.13;;;11.40;99.90;;;;;;5090287;28;20047;-61
2023/05/30 04:15:55;;;;;;;7.80;3.65;;;11.40;99.90;;;;;;5092494;28;20388;-61
2023/05/30 04:18:20;;;;;;;16.35;3.80;;;11.50;99.90;;;;;;5090910;28;21008;-61
2023/05/30 04:20:46;;;;;;;14.90;5.03;;;11.50;99.90;;;;;;5101175;28;20042;-61
2023/05/30 04:23:12;;;;;;;13.90;4.82;;;11.40;99.90;;;;;;5112269;28;20118;-61
2023/05/30 04:25:38;;;;;;;10.48;4.15;;;11.50;99.90;;;;;;5110213;28;20467;-61
2023/05/30 04:28:05;;;;;;;15.23;4.40;;;11.50;99.90;;;;;;5112240;28;20028;-60
2023/05/30 04:30:33;;;;;;;14.35;5.10;;;11.50;99.90;;;;;;5112986;28;20039;-61
2023/05/30 04:32:59;;;;;;;11.95;4.07;;;11.50;99.90;;;;;;5116193;28;20396;-61
2023/05/30 04:35:25;;;;;;;10.68;3.58;;;11.50;99.90;;;;;;5114679;28;20047;-61
2023/05/30 04:37:53;;;;;;;8.85;3.92;;;11.50;99.90;;;;;;5115698;28;20428;-61
2023/05/30 04:40:19;;;;;;;11.63;3.35;;;11.50;99.90;;;;;;5114626;28;20055;-61
2023/05/30 04:42:51;;;;;;;10.85;3.47;;;11.50;99.90;;;;;;5115969;28;20032;-61
2023/05/30 04:45:18;;;;;;;12.13;3.75;;;11.50;99.90;;;;;;5115205;28;20396;-60
2023/05/30 04:47:47;;;;;;;7.57;2.88;;;11.50;99.90;;;;;;5112841;28;20043;-61
2023/05/30 04:50:14;;;;;;;7.80;3.10;;;11.50;99.90;;;;;;5115898;28;20173;-60
2023/05/30 04:52:42;;;;;;;9.55;3.17;;;11.50;99.90;;;;;;5114983;28;20046;-61
2023/05/30 04:55:08;;;;;;;11.45;2.45;;;11.50;99.90;;;;;;5114674;28;20129;-60
2023/05/30 04:57:34;;;;;;;7.15;2.65;;;11.50;99.90;;;;;;5115832;28;20494;-61
2023/05/30 05:00:00;;;;;;;8.27;3.00;;;11.50;99.90;;;;;;5113357;28;20114;-61
2023/05/30 05:02:28;;;;;;;11.43;3.17;;;11.50;99.90;;;;;;5114160;28;20522;-61
2023/05/30 05:04:54;;;;;;;13.93;3.92;;;11.40;99.90;;;;;;5114769;28;20500;-60
2023/05/30 05:07:20;;;;;;;7.97;2.50;;;11.40;99.90;;;;;;5096126;28;20059;-61
2023/05/30 05:09:46;;;;;;;9.07;3.38;;;11.40;99.90;;;;;;5114316;28;20427;-61
2023/05/30 05:12:13;;;;;;;7.93;2.72;;;11.40;99.90;;;;;;5115615;28;20074;-61
2023/05/30 05:14:41;;;;;;;8.68;2.60;;;11.50;99.90;;;;;;5114697;28;20123;-61
2023/05/30 05:17:07;;;;;;;7.90;2.78;;;11.50;99.90;;;;;;5114576;28;20083;-61
2023/05/30 05:19:34;;;;;;;7.35;2.70;;;11.50;99.90;;;;;;5115185;28;20071;-61
2023/05/30 05:22:02;;;;;;;8.52;2.90;;;11.50;99.90;;;;;;5113543;28;20495;-61
2023/05/30 05:24:28;;;;;;;8.80;3.00;;;11.50;99.90;;;;;;5113394;28;20051;-61
2023/05/30 05:26:54;;;;;;;9.70;3.47;;;11.50;99.90;;;;;;5113355;28;20043;-61
2023/05/30 05:29:20;;;;;;;14.63;3.45;;;11.50;99.90;;;;;;5113691;28;20042;-61
2023/05/30 05:31:46;;;;;;;6.90;3.05;;;11.60;99.90;;;;;;5113984;28;20041;-61
2023/05/30 05:34:11;;;;;;;11.70;3.28;;;11.60;99.90;;;;;;5113114;28;20158;-61
2023/05/30 05:36:37;;;;;;;9.70;3.95;;;11.60;99.90;;;;;;5112536;28;20043;-61
2023/05/30 05:39:03;;;;;;;10.75;3.10;;;11.60;99.90;;;;;;5094617;28;20083;-61
2023/05/30 05:41:28;;;;;;;17.30;4.32;;;11.60;99.90;;;;;;5091566;28;20160;-61
2023/05/30 05:43:55;;;;;;;11.18;3.72;;;11.60;99.90;;;;;;5076419;28;20082;-61
2023/05/30 05:46:20;;;;;;;12.73;3.10;;;11.60;99.90;;;;;;5093107;28;20036;-61
2023/05/30 05:48:46;;;;;;;9.27;2.72;;;11.60;99.90;;;;;;5093959;28;20390;-61
2023/05/30 05:51:12;;;;;;;8.63;2.92;;;11.60;99.90;;;;;;5093246;28;20481;-61
2023/05/30 05:53:37;;;;;;;9.80;2.50;;;11.60;99.90;;;;;;5092942;28;20067;-61
2023/05/30 05:56:03;;;;;;;7.63;2.25;;;11.60;99.90;;;;;;5093938;28;20036;-61
2023/05/30 05:58:29;;;;;;;8.32;2.95;;;11.60;99.90;;;;;;5092531;28;20125;-61
2023/05/30 06:00:54;;;;;;;10.23;3.17;;;11.60;99.90;;;;;;5094246;28;20046;-61
2023/05/30 06:03:20;;;;;;;5.97;2.47;;;11.60;99.90;;;;;;5093115;28;20036;-61
2023/05/30 06:05:46;;;;;;;7.35;2.60;;;11.60;99.90;;;;;;5093030;28;20461;-60
2023/05/30 06:08:12;;;;;;;6.13;2.50;;;11.60;99.90;;;;;;5092525;28;20401;-61
2023/05/30 06:10:37;;;;;;;8.38;2.50;;;11.60;99.90;;;;;;5091953;28;20447;-60
2023/05/30 06:13:03;;;;;;;9.38;2.85;;;11.60;99.90;;;;;;5094203;28;20119;-61
2023/05/30 06:15:28;;;;;;;6.90;2.50;;;11.60;99.90;;;;;;5093629;28;20043;-61
2023/05/30 06:17:54;;;;;;;7.70;2.67;;;11.60;99.90;;;;;;5093327;28;20449;-60
2023/05/30 06:20:20;;;;;;;9.43;2.70;;;11.60;99.90;;;;;;5092225;28;20102;-61
2023/05/30 06:22:46;;;;;;;5.22;2.20;;;11.70;99.90;;;;;;5094498;28;20039;-61
2023/05/30 06:25:12;;;;;;;6.85;2.30;;;11.70;99.90;;;;;;5102828;28;20123;-60
2023/05/30 06:27:37;;;;;;;8.07;2.50;;;11.70;99.90;;;;;;5093001;28;20040;-61
2023/05/30 06:30:05;;;;;;;7.47;2.30;;;11.70;99.90;;;;;;5111747;28;20040;-61
2023/05/30 06:32:31;;;;;;;8.70;2.72;;;11.70;99.90;;;;;;5111394;28;20484;-61
2023/05/30 06:34:57;;;;;;;9.32;2.28;;;11.70;99.90;;;;;;5113997;28;20039;-61
2023/05/30 06:37:22;;;;;;;6.15;2.65;;;11.80;99.90;;;;;;5111605;28;20036;-61
2023/05/30 06:39:48;;;;;;;6.25;2.80;;;11.80;99.90;;;;;;5112288;28;20180;-61
2023/05/30 06:42:14;;;;;;;7.60;2.33;;;11.80;99.90;;;;;;5113886;28;20032;-61
2023/05/30 06:44:40;;;;;;;8.75;2.15;;;11.80;99.90;;;;;;5112344;28;20403;-61
2023/05/30 06:47:08;;;;;;;8.63;2.20;;;11.80;99.90;;;;;;5113764;28;20400;-61
2023/05/30 06:49:34;;;;;;;7.05;2.72;;;11.80;99.90;;;;;;5112978;28;20481;-61
2023/05/30 06:52:00;;;;;;;6.32;2.53;;;11.80;99.90;;;;;;5112440;28;20050;-61
2023/05/30 06:54:26;;;;;;;7.05;2.08;;;11.80;99.90;;;;;;5091475;28;20126;-61
2023/05/30 06:56:52;;;;;;;7.93;2.65;;;11.80;99.90;;;;;;5090139;28;20043;-61
2023/05/30 06:59:19;;;;;;;9.05;2.65;;;11.90;99.90;;;;;;5089307;28;20044;-61
2023/05/30 07:01:45;;;;;;;9.43;2.75;;;11.90;99.90;;;;;;5088781;28;20082;-61
2023/05/30 07:04:12;;;;;;;6.07;1.92;;;11.90;99.90;;;;;;5091042;28;20044;-61
2023/05/30 07:06:38;;;;;;;5.88;2.20;;;12.00;99.90;;;;;;5087580;28;20556;-61
2023/05/30 07:09:03;;;;;;;6.90;1.98;;;12.00;99.90;;;;;;5088991;28;20079;-61
2023/05/30 07:11:29;;;;;;;7.30;2.13;;;12.00;99.90;;;;;;5090178;28;20083;-61
2023/05/30 07:13:55;;;;;;;5.93;1.98;;;12.10;99.90;;;;;;5089707;28;20146;-61
2023/05/30 07:16:21;;;;;;;7.20;2.38;;;12.10;99.90;;;;;;5102195;28;20395;-61
2023/05/30 07:18:47;;;;;;;4.50;1.92;;;12.10;99.90;;;;;;5090092;28;20048;-61
2023/05/30 07:21:12;;;;;;;10.05;2.40;;;12.10;99.90;;;;;;5118240;27;20036;-61
2023/05/30 07:23:38;;;;;;;6.32;2.15;;;12.10;99.90;;;;;;5096831;28;20118;-61
2023/05/30 07:26:04;;;;;;;8.32;2.50;;;12.00;99.90;;;;;;5090243;28;20079;-61
2023/05/30 07:28:29;;;;;;;9.60;2.40;;;12.00;99.90;;;;;;5088591;28;20119;-61
2023/05/30 07:30:55;;;;;;;4.80;2.22;;;11.90;99.90;;;;;;5122572;27;20054;-61
2023/05/30 07:33:21;;;;;;;6.85;2.78;;;11.90;99.90;;;;;;5119054;27;20122;-61
2023/05/30 07:35:46;;;;;;;6.00;2.05;;;12.00;99.90;;;;;;5100538;28;20032;-61
2023/05/30 07:38:12;;;;;;;6.25;2.33;;;12.00;99.90;;;;;;5090263;28;20039;-61
2023/05/30 07:40:38;;;;;;;6.55;2.97;;;11.90;99.90;;;;;;5096873;28;20115;-61
2023/05/30 07:43:03;;;;;;;7.15;2.75;;;12.00;99.90;;;;;;5119605;27;20040;-61
2023/05/30 07:45:29;;;;;;;6.95;2.17;;;12.00;99.90;;;;;;5102695;28;20058;-61
2023/05/30 07:47:55;;;;;;;7.85;2.47;;;12.10;99.90;;;;;;5093180;28;20044;-61
2023/05/30 07:50:21;;;;;;;6.72;2.28;;;12.10;99.90;;;;;;5095823;28;20035;-61
2023/05/30 07:52:46;;;;;;;4.47;1.60;;;12.10;99.90;;;;;;5112908;28;20485;-61
2023/05/30 07:55:12;;;;;;;6.55;2.08;;;12.10;99.90;;;;;;5110630;28;20479;-61
2023/05/30 07:57:38;;;;;;;5.70;1.20;;;12.00;99.90;;;;;;5112445;28;20484;-61
2023/05/30 08:00:08;;;;;;;4.45;1.48;;;12.00;99.90;;;;;;5106919;28;20036;-60
2023/05/30 08:02:37;;;;;;;3.47;1.05;;;12.00;99.90;;;;;;5094750;28;20475;-61
2023/05/30 08:05:02;;;;;;;5.90;1.30;;;12.00;99.90;;;;;;5101538;28;20032;-61
2023/05/30 08:07:30;;;;;;;3.63;0.80;;;12.10;99.90;;;;;;5120199;27;20052;-61
2023/05/30 08:09:56;;;;;;;2.40;1.08;;;12.10;99.90;;;;;;5112662;28;20138;-60
2023/05/30 08:12:24;;;;;;;1.65;0.55;;;12.20;99.90;;;;;;5118062;28;20586;-60
2023/05/30 08:14:50;;;;;;;2.83;0.85;;;12.40;99.90;;;;;;5111930;28;20044;-61
2023/05/30 08:17:16;;;;;;;4.88;1.35;;;12.60;99.90;;;;;;5128823;27;20043;-60
2023/05/30 08:19:42;;;;;;;2.25;0.85;;;12.90;99.90;;;;;;5105100;27;20043;-60
2023/05/30 08:22:10;;;;;;;3.03;0.70;;;13.20;99.90;;;;;;5114434;27;20093;-61
2023/05/30 08:24:36;;;;;;;1.90;0.80;;;13.50;99.90;;;;;;5099043;28;20032;-61
2023/05/30 08:27:06;;;;;;;2.50;0.60;;;13.60;99.90;;;;;;5098673;28;20075;-61
2023/05/30 08:29:33;;;;;;;2.55;0.68;;;13.70;99.90;;;;;;5101615;28;20123;-61
2023/05/30 08:31:59;;;;;;;1.55;0.68;;;13.70;99.90;;;;;;5097483;28;20110;-61
2023/05/30 08:34:25;;;;;;;1.65;0.65;;;13.60;99.90;;;;;;5106138;28;20119;-61
2023/05/30 08:36:55;;;;;;;2.83;1.10;;;13.60;99.90;;;;;;5098128;28;20418;-61
2023/05/30 08:39:21;;;;;;;3.55;1.00;;;13.50;99.90;;;;;;5098854;28;20072;-61
2023/05/30 08:41:47;;;;;;;6.10;1.80;;;13.60;99.90;;;;;;5115762;27;20039;-60
2023/05/30 08:44:13;;;;;;;5.38;2.83;;;13.60;99.90;;;;;;5114714;28;20090;-61
2023/05/30 08:46:42;;;;;;;4.82;1.17;;;13.50;99.90;;;;;;5110678;28;20048;-61
2023/05/30 08:49:20;;;;;;;2.95;1.40;;;13.50;99.90;;;;;;5092884;28;20477;-60
2023/05/30 08:51:47;;;;;;;5.15;1.10;;;13.50;99.90;;;;;;5105860;28;20120;-60
2023/05/30 08:54:23;;;;;;;2.95;1.10;;;13.40;99.90;;;;;;5116836;28;20096;-61
2023/05/30 08:57:02;;;;;;;7.13;2.50;;;13.40;99.90;;;;;;5118869;27;20426;-61
2023/05/30 08:59:28;;;;;;;4.10;1.20;;;13.40;99.90;;;;;;5113306;27;20053;-61
2023/05/30 09:01:56;;;;;;;3.40;0.95;;;13.30;99.90;;;;;;5114666;28;20081;-60
2023/05/30 09:04:23;;;;;;;2.03;0.75;;;13.30;99.90;;;;;;5097997;28;20374;-61
2023/05/30 09:06:50;;;;;;;1.00;0.50;;;13.10;99.90;;;;;;5096402;28;20039;-61
2023/05/30 09:09:18;;;;;;;3.00;1.05;;;13.10;99.90;;;;;;5108239;28;20032;-61
2023/05/30 09:11:43;;;;;;;3.45;0.90;;;13.00;99.90;;;;;;5108675;28;20070;-62
2023/05/30 09:14:09;;;;;;;2.97;0.90;;;13.00;99.90;;;;;;5098403;28;20108;-61
2023/05/30 09:16:36;;;;;;;2.53;0.80;;;13.00;99.90;;;;;;5098504;27;20451;-61
2023/05/30 09:19:02;;;;;;;9.73;3.35;;;13.10;99.90;;;;;;5101399;28;20042;-61
2023/05/30 09:21:31;;;;;;;6.65;1.30;;;13.20;99.90;;;;;;5096271;28;21040;-61
2023/05/30 09:24:03;;;;;;;22.08;12.30;;;13.20;99.90;;;;;;5115299;27;20048;-61
2023/05/30 09:26:28;;;;;;;8.60;4.28;;;13.30;99.90;;;;;;5106968;28;20079;-60
2023/05/30 09:28:54;;;;;;;4.57;2.10;;;13.40;99.90;;;;;;5113756;28;20075;-61
2023/05/30 09:31:22;;;;;;;3.08;1.08;;;13.40;99.90;;;;;;5099273;28;20039;-61
2023/05/30 09:33:51;;;;;;;3.65;1.05;;;13.50;99.90;;;;;;5112389;28;20043;-61
2023/05/30 09:36:20;;;;;;;3.45;1.38;;;13.60;99.90;;;;;;5115285;28;20088;-60
2023/05/30 09:38:56;;;;;;;2.70;1.15;;;13.70;99.90;;;;;;5113680;28;20392;-61
2023/05/30 09:41:27;;;;;;;3.50;1.40;;;13.50;99.90;;;;;;5096854;28;20465;-61
2023/05/30 09:43:54;;;;;;;2.47;1.08;;;13.30;99.90;;;;;;5108058;28;20079;-60
2023/05/30 09:46:23;;;;;;;3.90;1.50;;;13.30;99.90;;;;;;5094985;28;20077;-61
2023/05/30 09:48:49;;;;;;;3.92;0.90;;;13.10;99.90;;;;;;5106967;28;20051;-61
2023/05/30 09:51:16;;;;;;;3.65;1.10;;;13.10;99.90;;;;;;5102757;27;20023;-60
2023/05/30 09:54:01;;;;;;;4.55;1.45;;;13.00;99.90;;;;;;5116645;27;20047;-60
2023/05/30 09:56:37;;;;;;;3.08;1.10;;;13.00;99.90;;;;;;5102068;27;20055;-61
2023/05/30 09:59:08;;;;;;;3.42;1.02;;;12.90;99.90;;;;;;5108345;28;20040;-61
2023/05/30 10:01:40;;;;;;;4.88;1.60;;;12.90;99.90;;;;;;5111830;28;20416;-61
2023/05/30 10:04:20;;;;;;;5.03;1.50;;;12.90;99.90;;;;;;5109549;28;20035;-60
2023/05/30 10:06:48;;;;;;;8.70;3.13;;;13.00;99.90;;;;;;5101883;28;20039;-60
2023/05/30 10:09:14;;;;;;;6.18;2.38;;;13.00;99.90;;;;;;5107861;28;20480;-60
2023/05/30 10:11:42;;;;;;;3.42;0.80;;;13.10;99.90;;;;;;5110902;28;20045;-61
2023/05/30 10:14:09;;;;;;;7.50;3.85;;;13.10;99.90;;;;;;5107321;28;20057;-60
2023/05/30 10:16:40;;;;;;;6.35;3.42;;;13.20;99.90;;;;;;5103831;28;20044;-60
2023/05/30 10:19:10;;;;;;;4.03;1.63;;;13.20;99.90;;;;;;5108944;28;20047;-60
2023/05/30 10:21:38;;;;;;;4.00;1.23;;;13.40;99.90;;;;;;5093804;28;20048;-61
2023/05/30 10:24:09;;;;;;;7.95;4.55;;;13.60;99.90;;;;;;5102528;28;20540;-60
2023/05/30 10:26:38;;;;;;;2.60;0.75;;;13.70;99.90;;;;;;5096848;28;20066;-60
2023/05/30 10:29:07;;;;;;;3.40;1.20;;;13.70;99.90;;;;;;5094578;28;20432;-60
2023/05/30 10:31:34;;;;;;;4.00;1.10;;;13.80;99.90;;;;;;5092893;28;20044;-59
2023/05/30 10:34:03;;;;;;;4.10;1.52;;;13.80;99.90;;;;;;5092221;28;20093;-60
2023/05/30 10:36:29;;;;;;;4.07;1.40;;;13.70;99.90;;;;;;5103220;27;20044;-60
2023/05/30 10:39:09;;;;;;;5.85;1.25;;;13.70;99.90;;;;;;5093086;28;20043;-60
2023/05/30 10:41:56;;;;;;;4.57;1.13;;;13.60;99.90;;;;;;5094759;28;20047;-60
2023/05/30 10:44:46;;;;;;;5.18;1.23;;;13.50;99.90;;;;;;5097304;28;20065;-61
2023/05/30 10:47:30;;;;;;;2.83;1.05;;;13.40;99.90;;;;;;5094470;28;20048;-61
2023/05/30 10:49:59;;;;;;;5.15;1.55;;;13.40;99.90;;;;;;5125003;27;20044;-61
2023/05/30 10:52:34;;;;;;;2.67;0.73;;;13.40;99.90;;;;;;5123282;27;20093;-61
2023/05/30 10:55:00;;;;;;;3.60;1.05;;;13.40;99.90;;;;;;5091026;28;20039;-60
2023/05/30 10:57:32;;;;;;;2.72;1.13;;;13.40;99.90;;;;;;5123136;27;20043;-61
2023/05/30 11:00:10;;;;;;;5.07;1.20;;;13.40;99.90;;;;;;5091216;28;20051;-60
2023/05/30 11:02:37;;;;;;;2.88;1.10;;;13.40;99.90;;;;;;5092011;28;20036;-61
2023/05/30 11:05:10;;;;;;;5.97;1.33;;;13.50;99.90;;;;;;5092611;28;20043;-60
2023/05/30 11:07:41;;;;;;;2.85;1.35;;;13.70;99.90;;;;;;5126137;27;20488;-60
2023/05/30 11:10:14;;;;;;;2.83;1.00;;;13.80;99.90;;;;;;5125948;27;20480;-61
2023/05/30 11:12:42;;;;;;;3.22;0.98;;;13.90;99.90;;;;;;5124943;27;20161;-61
2023/05/30 11:15:09;;;;;;;4.50;0.98;;;14.00;99.90;;;;;;5125657;27;20044;-61
2023/05/30 11:17:35;;;;;;;2.13;0.60;;;14.10;99.90;;;;;;5092981;28;20040;-61
2023/05/30 11:20:09;;;;;;;2.50;0.82;;;14.10;99.90;;;;;;5091917;28;20040;-61
2023/05/30 11:22:37;;;;;;;2.35;0.88;;;14.30;99.90;;;;;;5125574;27;20040;-61
2023/05/30 11:25:23;;;;;;;2.28;0.80;;;14.30;99.90;;;;;;5093074;28;20040;-61
2023/05/30 11:28:04;;;;;;;2.95;1.27;;;14.40;99.90;;;;;;5091760;28;20450;-61
2023/05/30 11:30:40;;;;;;;2.95;0.95;;;14.20;99.90;;;;;;5125221;27;20040;-61
2023/05/30 11:33:09;;;;;;;2.15;1.08;;;14.10;99.90;;;;;;5091832;28;20488;-61
2023/05/30 11:35:36;;;;;;;3.25;1.27;;;13.90;99.90;;;;;;5092920;28;20123;-61
2023/05/30 11:38:02;;;;;;;2.25;1.00;;;13.80;99.90;;;;;;5092741;28;20039;-61
2023/05/30 11:40:30;;;;;;;3.90;1.10;;;13.80;99.90;;;;;;5090961;28;20115;-61
2023/05/30 11:42:56;;;;;;;3.88;1.23;;;13.90;99.90;;;;;;5074183;28;20169;-61
2023/05/30 11:45:26;;;;;;;3.55;1.73;;;14.00;99.90;;;;;;5090836;28;20055;-61
2023/05/30 11:47:52;;;;;;;5.00;2.40;;;14.10;99.90;;;;;;5124273;27;20036;-61
2023/05/30 11:50:21;;;;;;;2.58;1.00;;;14.10;99.90;;;;;;5091255;28;20044;-61
2023/05/30 11:52:46;;;;;;;4.18;1.20;;;14.10;99.90;;;;;;5090972;28;20047;-61
2023/05/30 11:55:12;;;;;;;3.08;1.30;;;14.20;99.90;;;;;;5124415;27;20044;-61
2023/05/30 11:57:38;;;;;;;4.55;1.40;;;14.20;99.90;;;;;;5092039;28;20507;-61
2023/05/30 12:00:11;;;;;;;7.78;1.50;;;14.30;99.90;;;;;;5125234;27;20044;-61
2023/05/30 12:02:37;;;;;;;4.18;1.40;;;14.20;99.90;;;;;;5091390;28;20504;-61
2023/05/30 12:05:04;;;;;;;4.22;1.30;;;14.00;99.90;;;;;;5125108;28;20119;-61
2023/05/30 12:07:33;;;;;;;6.05;1.60;;;13.90;99.90;;;;;;5092206;28;20385;-61
2023/05/30 12:09:58;;;;;;;4.28;1.50;;;13.80;99.90;;;;;;5091195;28;20097;-61
2023/05/30 12:12:26;;;;;;;5.43;1.65;;;13.80;99.90;;;;;;5124688;28;20040;-61
2023/05/30 12:14:53;;;;;;;4.40;1.60;;;13.80;99.90;;;;;;5090107;28;20048;-61
2023/05/30 12:17:22;;;;;;;4.50;1.45;;;13.90;99.90;;;;;;5124895;28;20054;-61
2023/05/30 12:19:56;;;;;;;5.80;1.75;;;13.90;99.90;;;;;;5090764;28;20048;-61
2023/05/30 12:22:23;;;;;;;4.53;1.73;;;14.10;99.90;;;;;;5091242;28;20081;-61
2023/05/30 12:24:49;;;;;;;4.13;1.50;;;14.20;99.90;;;;;;5124637;28;20310;-61
2023/05/30 12:27:20;;;;;;;3.85;1.35;;;14.20;99.90;;;;;;5090431;28;20472;-61
2023/05/30 12:29:45;;;;;;;4.57;1.40;;;14.10;99.90;;;;;;5091286;28;20044;-61
2023/05/30 12:32:11;;;;;;;4.05;1.50;;;14.00;99.90;;;;;;5124622;28;20096;-61
2023/05/30 12:34:39;;;;;;;4.57;1.77;;;14.00;99.90;;;;;;5124734;28;20446;-61
2023/05/30 12:37:10;;;;;;;3.97;1.40;;;14.10;99.90;;;;;;5091336;28;20051;-61
2023/05/30 12:39:46;;;;;;;5.03;2.17;;;14.10;99.90;;;;;;5090600;28;20193;-61
2023/05/30 12:42:11;;;;;;;4.65;1.90;;;14.30;99.90;;;;;;5124729;28;20044;-61
2023/05/30 12:44:45;;;;;;;3.63;1.58;;;14.40;99.90;;;;;;5090913;28;20396;-61
2023/05/30 12:47:11;;;;;;;4.18;1.52;;;14.50;99.90;;;;;;5073675;28;20047;-61